Time;durP1;ratioP1;P1;durP2;ratioP2;P2;SDS_P1;SDS_P2;PMS_P1;PMS_P2;Temp;Humidity;BMP_temperature;BMP_pressure;BME280_temperature;BME280_humidity;BME280_pressure;Samples;Min_cycle;Max_cycle;Signal;HPM_P1;HPM_P2
2022/08/26 00:01:55;;;;;;;10.93;6.80;;;22.50;75.10;;;;;;4701387;30;20299;-82
2022/08/26 00:04:23;;;;;;;6.40;4.95;;;22.50;75.30;;;;;;4715544;30;20511;-83
2022/08/26 00:06:53;;;;;;;7.30;5.80;;;22.50;75.10;;;;;;4701126;30;20103;-84
2022/08/26 00:09:20;;;;;;;8.38;6.10;;;22.50;75.30;;;;;;4699193;30;20419;-81
2022/08/26 00:11:47;;;;;;;7.88;5.43;;;22.50;75.60;;;;;;4686857;30;20069;-79
2022/08/26 00:14:16;;;;;;;8.32;4.88;;;22.40;75.50;;;;;;4708448;30;20037;-80
2022/08/26 00:16:44;;;;;;;8.30;5.63;;;22.40;75.90;;;;;;4702124;30;20061;-79
2022/08/26 00:19:18;;;;;;;8.73;5.55;;;22.40;76.30;;;;;;4701101;30;20147;-80
2022/08/26 00:21:50;;;;;;;7.97;4.85;;;22.40;76.50;;;;;;4701538;30;20166;-80
2022/08/26 00:24:19;;;;;;;10.47;5.87;;;22.30;76.50;;;;;;4717858;30;20464;-80
2022/08/26 00:26:47;;;;;;;10.35;6.00;;;22.30;77.10;;;;;;4701199;30;20298;-80
2022/08/26 00:29:16;;;;;;;6.00;4.90;;;22.30;77.20;;;;;;4701028;30;20061;-79
2022/08/26 00:31:43;;;;;;;7.53;4.20;;;22.30;76.90;;;;;;4700898;30;20563;-80
2022/08/26 00:34:11;;;;;;;6.63;4.93;;;22.30;76.60;;;;;;4705312;30;20472;-82
2022/08/26 00:36:39;;;;;;;7.72;4.25;;;22.30;77.70;;;;;;4715156;30;20057;-81
2022/08/26 00:39:07;;;;;;;6.63;4.10;;;22.30;77.40;;;;;;4703743;30;20061;-80
2022/08/26 00:41:38;;;;;;;3.95;3.28;;;22.30;77.40;;;;;;4712316;30;20484;-81
2022/08/26 00:44:09;;;;;;;6.85;4.00;;;22.30;77.10;;;;;;4716420;30;20503;-79
2022/08/26 00:46:45;;;;;;;5.10;3.20;;;22.30;77.30;;;;;;4717028;30;20040;-81
2022/08/26 00:49:20;;;;;;;5.82;3.30;;;22.30;77.40;;;;;;4722294;30;20835;-81
2022/08/26 00:51:57;;;;;;;8.98;4.13;;;22.20;77.70;;;;;;4719251;30;20155;-80
2022/08/26 00:54:32;;;;;;;5.30;3.75;;;22.20;78.10;;;;;;4739677;30;20060;-79
2022/08/26 00:57:10;;;;;;;8.23;4.00;;;22.20;77.90;;;;;;4703974;30;20084;-80
2022/08/26 00:59:46;;;;;;;5.60;3.33;;;22.20;77.80;;;;;;4724151;30;20123;-80
2022/08/26 01:02:15;;;;;;;4.97;3.20;;;22.20;77.80;;;;;;4719955;30;20415;-79
2022/08/26 01:04:50;;;;;;;;;;;22.20;78.00;;;;;;4705514;30;20069;-79
2022/08/26 01:07:27;;;;;;;8.35;3.08;;;22.10;78.10;;;;;;4716373;30;19927;-78
2022/08/26 01:09:59;;;;;;;6.00;2.35;;;22.10;77.80;;;;;;4732039;30;20109;-79
2022/08/26 01:12:30;;;;;;;4.57;2.63;;;22.10;77.90;;;;;;4718080;30;20559;-79
2022/08/26 01:14:57;;;;;;;3.65;2.00;;;22.10;78.00;;;;;;4718524;30;20053;-79
2022/08/26 01:17:25;;;;;;;3.88;1.63;;;22.10;77.70;;;;;;4675303;30;20049;-79
2022/08/26 01:19:59;;;;;;;3.47;1.83;;;22.10;77.60;;;;;;4718040;30;20045;-79
2022/08/26 01:22:42;;;;;;;3.35;1.80;;;22.10;77.50;;;;;;4717991;30;20049;-79
2022/08/26 01:25:12;;;;;;;2.90;1.35;;;22.10;77.40;;;;;;4703834;30;20128;-79
2022/08/26 01:27:39;;;;;;;2.92;1.75;;;22.10;77.40;;;;;;4703601;30;20052;-79
2022/08/26 01:30:11;;;;;;;3.60;1.83;;;22.10;77.70;;;;;;4705728;30;20064;-79
2022/08/26 01:32:39;;;;;;;2.88;1.40;;;22.10;77.80;;;;;;4723769;30;20057;-79
2022/08/26 01:35:07;;;;;;;4.85;1.75;;;22.10;77.70;;;;;;4703810;30;20064;-79
2022/08/26 01:37:37;;;;;;;2.30;1.38;;;22.00;77.70;;;;;;4703488;30;20060;-79
2022/08/26 01:40:12;;;;;;;2.45;1.35;;;22.00;77.60;;;;;;4720754;30;20049;-79
2022/08/26 01:42:41;;;;;;;5.75;2.05;;;22.00;78.40;;;;;;4718013;30;20056;-79
2022/08/26 01:45:19;;;;;;;3.33;1.80;;;22.00;78.00;;;;;;4689891;30;20049;-79
2022/08/26 01:47:49;;;;;;;3.13;1.77;;;22.00;77.70;;;;;;4717595;30;20107;-79
2022/08/26 01:50:32;;;;;;;3.30;1.33;;;22.00;77.90;;;;;;4717963;30;20057;-79
2022/08/26 01:53:04;;;;;;;3.97;1.48;;;22.00;77.80;;;;;;4715777;30;20053;-79
2022/08/26 01:55:33;;;;;;;4.25;2.00;;;22.00;78.00;;;;;;4730027;30;20472;-78
2022/08/26 01:58:04;;;;;;;3.97;1.50;;;22.00;78.40;;;;;;4689323;30;20447;-79
2022/08/26 02:00:34;;;;;;;2.08;1.45;;;22.00;78.30;;;;;;4713187;30;20521;-79
2022/08/26 02:03:16;;;;;;;5.13;1.77;;;22.00;78.10;;;;;;4720199;30;20045;-80
2022/08/26 02:05:47;;;;;;;4.57;1.60;;;22.00;78.50;;;;;;4722088;30;20135;-80
2022/08/26 02:08:19;;;;;;;3.47;1.40;;;21.90;78.50;;;;;;4723279;30;20049;-79
2022/08/26 02:10:51;;;;;;;2.10;1.23;;;21.90;78.20;;;;;;4717122;30;20632;-81
2022/08/26 02:13:21;;;;;;;3.65;1.52;;;21.90;78.40;;;;;;4723563;30;20803;-80
2022/08/26 02:16:02;;;;;;;2.35;1.52;;;21.90;78.30;;;;;;4693207;30;20049;-82
2022/08/26 02:18:33;;;;;;;3.17;1.10;;;21.90;78.10;;;;;;4713595;30;20050;-80
2022/08/26 02:21:01;;;;;;;2.28;0.88;;;21.90;78.20;;;;;;4706286;30;20503;-80
2022/08/26 02:23:32;;;;;;;2.53;1.00;;;21.90;78.10;;;;;;4712218;30;20037;-79
2022/08/26 02:26:07;;;;;;;3.88;1.08;;;21.90;78.70;;;;;;4717129;30;20045;-80
2022/08/26 02:28:51;;;;;;;2.33;1.05;;;21.90;78.30;;;;;;4716017;30;20057;-80
2022/08/26 02:31:18;;;;;;;4.47;1.48;;;21.90;78.20;;;;;;4715863;30;20056;-80
2022/08/26 02:33:45;;;;;;;2.50;1.00;;;21.90;78.60;;;;;;4702849;30;20057;-80
2022/08/26 02:36:20;;;;;;;2.72;1.10;;;21.80;78.30;;;;;;4703087;30;20065;-80
2022/08/26 02:38:47;;;;;;;2.67;0.90;;;21.80;78.40;;;;;;4700104;30;20415;-80
2022/08/26 02:41:14;;;;;;;3.75;1.08;;;21.80;78.50;;;;;;4721095;30;20510;-79
2022/08/26 02:43:44;;;;;;;3.28;1.00;;;21.80;78.60;;;;;;4703611;30;20413;-80
2022/08/26 02:46:12;;;;;;;2.80;0.88;;;21.80;78.50;;;;;;4705318;30;20054;-79
2022/08/26 02:48:56;;;;;;;2.55;0.95;;;21.80;78.50;;;;;;4705243;30;20128;-81
2022/08/26 02:51:24;;;;;;;2.55;0.70;;;21.80;78.70;;;;;;4711722;30;20068;-80
2022/08/26 02:53:50;;;;;;;2.13;0.95;;;21.80;78.70;;;;;;4707334;30;20087;-80
2022/08/26 02:56:18;;;;;;;2.80;0.75;;;21.80;78.80;;;;;;4688331;30;20364;-80
2022/08/26 02:58:45;;;;;;;1.80;0.63;;;21.80;78.70;;;;;;4702347;30;20136;-80
2022/08/26 03:01:27;;;;;;;2.03;0.65;;;21.80;78.80;;;;;;4702324;30;20052;-80
2022/08/26 03:03:54;;;;;;;;;;;21.70;78.60;;;;;;4702441;30;20053;-80
2022/08/26 03:06:21;;;;;;;1.85;0.75;;;21.70;78.70;;;;;;4716556;30;20450;-80
2022/08/26 03:08:49;;;;;;;1.45;0.70;;;21.70;78.60;;;;;;4715947;30;20061;-81
2022/08/26 03:11:17;;;;;;;3.38;0.82;;;21.70;78.90;;;;;;4716147;30;20136;-80
2022/08/26 03:13:45;;;;;;;1.73;0.60;;;21.70;78.70;;;;;;4721055;30;20068;-80
2022/08/26 03:16:12;;;;;;;1.40;0.70;;;21.70;78.60;;;;;;4701625;30;20570;-79
2022/08/26 03:18:40;;;;;;;2.72;0.70;;;21.70;78.60;;;;;;4687858;30;20463;-80
2022/08/26 03:21:10;;;;;;;1.77;0.50;;;21.70;78.50;;;;;;4716161;30;20841;-80
2022/08/26 03:23:38;;;;;;;1.65;0.52;;;21.70;78.60;;;;;;4728046;30;20139;-80
2022/08/26 03:26:06;;;;;;;3.15;0.57;;;21.70;78.50;;;;;;4718369;30;20053;-80
2022/08/26 03:30:38;;;;;;;0.90;0.47;;;21.80;78.60;;;;;;4715877;30;20146;-80
2022/08/26 03:31:24;;;;;;;2.47;0.50;;;21.70;78.60;;;;;;4714918;30;20060;-80
2022/08/26 03:33:52;;;;;;;2.63;0.60;;;21.70;78.60;;;;;;4687516;30;20082;-80
2022/08/26 03:36:24;;;;;;;4.78;0.80;;;21.70;79.30;;;;;;4703726;30;20065;-80
2022/08/26 03:38:51;;;;;;;1.85;0.55;;;21.70;79.60;;;;;;4703657;30;20049;-80
2022/08/26 03:41:20;;;;;;;2.75;0.55;;;21.70;79.30;;;;;;4715970;30;20052;-79
2022/08/26 03:43:50;;;;;;;1.60;0.50;;;21.60;79.20;;;;;;4715820;30;20446;-80
2022/08/26 03:46:19;;;;;;;2.95;0.70;;;21.70;79.20;;;;;;4718415;30;20060;-80
2022/08/26 03:48:46;;;;;;;2.55;0.60;;;21.70;79.10;;;;;;4717899;30;20060;-79
2022/08/26 03:51:17;;;;;;;1.13;0.43;;;21.60;79.00;;;;;;4701481;30;20084;-80
2022/08/26 03:53:46;;;;;;;1.10;0.40;;;21.60;78.90;;;;;;4691698;30;20511;-80
2022/08/26 03:56:14;;;;;;;1.15;0.40;;;21.70;78.90;;;;;;4717318;30;20049;-80
2022/08/26 03:58:43;;;;;;;3.08;0.50;;;21.70;78.80;;;;;;4701367;30;20064;-83
2022/08/26 04:01:13;;;;;;;1.30;0.35;;;21.70;78.70;;;;;;4698800;30;20156;-83
2022/08/26 04:03:57;;;;;;;1.52;0.40;;;21.80;78.60;;;;;;4699146;30;20140;-83
2022/08/26 04:06:38;;;;;;;1.70;0.40;;;21.70;78.60;;;;;;4709165;30;20107;-83
2022/08/26 04:09:09;;;;;;;1.00;0.25;;;21.80;78.50;;;;;;4715556;30;20119;-83
2022/08/26 04:11:38;;;;;;;0.70;0.30;;;21.80;78.60;;;;;;4712885;30;20817;-83
2022/08/26 04:14:13;;;;;;;1.65;0.30;;;21.80;78.40;;;;;;4713066;30;20049;-85
2022/08/26 04:16:44;;;;;;;1.48;0.40;;;21.80;78.30;;;;;;4707980;30;20079;-84
2022/08/26 04:19:15;;;;;;;1.35;0.43;;;21.80;78.30;;;;;;4716205;30;20056;-84
2022/08/26 04:21:43;;;;;;;0.98;0.22;;;21.80;78.20;;;;;;4706058;30;20053;-83
2022/08/26 04:24:13;;;;;;;0.93;0.30;;;21.80;78.10;;;;;;4701201;30;20495;-83
2022/08/26 04:26:43;;;;;;;;;;;21.80;78.10;;;;;;4716708;30;20069;-82
2022/08/26 04:29:16;;;;;;;1.85;0.50;;;21.80;78.10;;;;;;4691384;30;19981;-82
2022/08/26 04:31:45;;;;;;;0.90;0.30;;;21.80;78.10;;;;;;4712148;30;20149;-82
2022/08/26 04:34:14;;;;;;;1.70;0.40;;;21.80;78.00;;;;;;4710412;30;20113;-83
2022/08/26 04:36:42;;;;;;;1.15;0.30;;;21.80;78.00;;;;;;4715232;30;20064;-83
2022/08/26 04:39:15;;;;;;;2.15;0.20;;;21.80;78.00;;;;;;4715303;30;20132;-80
2022/08/26 04:41:49;;;;;;;0.77;0.20;;;21.80;77.80;;;;;;4708939;30;20107;-79
2022/08/26 04:44:17;;;;;;;2.20;0.30;;;21.80;77.80;;;;;;4715015;30;20050;-80
2022/08/26 04:46:44;;;;;;;2.17;0.22;;;21.80;77.80;;;;;;4699871;30;20049;-79
2022/08/26 04:49:13;;;;;;;0.80;0.20;;;21.80;77.80;;;;;;4709991;30;20111;-79
2022/08/26 04:51:40;;;;;;;0.73;0.20;;;21.80;77.80;;;;;;4704901;30;20143;-80
2022/08/26 04:54:10;;;;;;;1.38;0.20;;;21.80;77.70;;;;;;4687246;30;20515;-83
2022/08/26 04:56:41;;;;;;;1.27;0.30;;;21.80;77.60;;;;;;4688761;30;20053;-83
2022/08/26 04:59:11;;;;;;;2.47;0.28;;;21.80;77.60;;;;;;4712797;30;20499;-83
2022/08/26 05:01:49;;;;;;;1.00;0.30;;;21.80;77.50;;;;;;4703656;30;20048;-83
2022/08/26 05:04:20;;;;;;;2.10;0.30;;;21.80;77.40;;;;;;4716088;30;20495;-83
2022/08/26 05:06:48;;;;;;;1.38;0.20;;;21.90;77.50;;;;;;4719394;30;20499;-84
2022/08/26 05:09:17;;;;;;;0.60;0.20;;;21.80;77.60;;;;;;4719015;30;20049;-85
2022/08/26 05:11:47;;;;;;;0.85;0.20;;;21.80;77.60;;;;;;4700894;30;20053;-81
2022/08/26 05:14:20;;;;;;;1.10;0.30;;;21.80;77.50;;;;;;4719417;30;20127;-82
2022/08/26 05:16:48;;;;;;;0.68;0.20;;;21.80;77.40;;;;;;4719653;30;20041;-89
2022/08/26 05:19:15;;;;;;;1.10;0.20;;;21.90;77.40;;;;;;4689036;30;20045;-89
2022/08/26 05:21:45;;;;;;;2.15;0.20;;;21.80;77.30;;;;;;4711695;30;20076;-88
2022/08/26 05:24:13;;;;;;;2.63;0.40;;;21.90;77.30;;;;;;4688388;30;20049;-87
2022/08/26 05:26:41;;;;;;;2.83;0.20;;;21.80;77.30;;;;;;4715574;30;20047;-90
2022/08/26 05:29:10;;;;;;;1.15;0.20;;;21.80;77.50;;;;;;4701014;30;20061;-88
2022/08/26 05:31:37;;;;;;;2.25;0.28;;;21.80;77.40;;;;;;4700989;30;20111;-84
2022/08/26 05:34:08;;;;;;;2.50;0.20;;;21.80;77.40;;;;;;4719373;30;20057;-89
2022/08/26 05:36:36;;;;;;;3.97;0.52;;;21.80;77.30;;;;;;4708056;30;20049;-84
2022/08/26 05:39:07;;;;;;;1.80;0.47;;;21.80;77.40;;;;;;4706978;30;20073;-82
2022/08/26 05:41:39;;;;;;;2.83;0.32;;;21.80;77.40;;;;;;4723120;30;20080;-84
2022/08/26 05:44:10;;;;;;;0.70;0.30;;;21.90;77.50;;;;;;4721121;30;20053;-85
2022/08/26 05:46:41;;;;;;;4.53;0.40;;;21.90;77.40;;;;;;4717849;30;20104;-84
2022/08/26 05:49:11;;;;;;;1.63;0.30;;;21.90;78.30;;;;;;4706705;30;20064;-83
2022/08/26 05:51:45;;;;;;;1.65;0.20;;;21.90;77.50;;;;;;4700570;30;20470;-83
2022/08/26 05:54:15;;;;;;;1.02;0.10;;;21.90;77.40;;;;;;4719789;30;20103;-83
2022/08/26 05:56:50;;;;;;;2.88;0.30;;;21.90;77.40;;;;;;4717657;30;20151;-83
2022/08/26 05:59:17;;;;;;;1.52;0.22;;;21.90;77.30;;;;;;4700096;30;20050;-83
2022/08/26 06:01:50;;;;;;;1.35;0.20;;;22.00;77.40;;;;;;4715406;30;20144;-83
2022/08/26 06:04:22;;;;;;;2.90;0.38;;;22.00;77.20;;;;;;4704731;30;20049;-83
2022/08/26 06:06:52;;;;;;;2.22;0.38;;;22.00;77.30;;;;;;4715075;30;20107;-83
2022/08/26 06:09:19;;;;;;;3.35;0.30;;;22.00;77.30;;;;;;4711838;30;20072;-82
2022/08/26 06:11:49;;;;;;;1.50;0.20;;;22.10;77.30;;;;;;4703445;30;20111;-82
2022/08/26 06:14:16;;;;;;;0.82;0.20;;;22.20;77.10;;;;;;4702858;30;20057;-82
2022/08/26 06:16:45;;;;;;;1.10;0.20;;;22.20;76.90;;;;;;4688962;30;20132;-82
2022/08/26 06:19:14;;;;;;;2.30;0.30;;;22.30;76.80;;;;;;4717262;30;20053;-83
2022/08/26 06:21:45;;;;;;;1.70;0.30;;;22.20;76.80;;;;;;4705665;30;20055;-83
2022/08/26 06:27:03;;;;;;;2.45;0.30;;;22.30;76.70;;;;;;4714281;30;20073;-82
2022/08/26 06:29:32;;;;;;;0.98;0.20;;;22.30;76.70;;;;;;4717810;30;20115;-82
2022/08/26 06:31:59;;;;;;;1.83;0.38;;;22.30;76.60;;;;;;4717166;30;20049;-83
2022/08/26 06:34:27;;;;;;;1.73;0.30;;;22.30;76.60;;;;;;4704707;30;20048;-82
2022/08/26 06:36:58;;;;;;;2.17;0.63;;;22.40;76.40;;;;;;4735443;30;20053;-82
2022/08/26 06:39:25;;;;;;;1.83;0.25;;;22.50;76.40;;;;;;4723006;30;20054;-83
2022/08/26 06:41:57;;;;;;;2.13;0.38;;;22.50;76.30;;;;;;4713248;30;20518;-82
2022/08/26 06:44:25;;;;;;;2.03;0.30;;;22.50;76.20;;;;;;4704659;30;20087;-82
2022/08/26 06:46:52;;;;;;;1.02;0.20;;;22.50;76.10;;;;;;4714915;30;20107;-82
2022/08/26 06:49:20;;;;;;;2.00;0.43;;;22.60;75.90;;;;;;4710589;30;20056;-82
2022/08/26 06:51:56;;;;;;;1.30;0.20;;;22.70;75.70;;;;;;4724291;30;20059;-82
2022/08/26 06:54:25;;;;;;;1.60;0.30;;;22.70;75.50;;;;;;4703753;30;20045;-82
2022/08/26 06:56:52;;;;;;;2.00;0.32;;;22.80;75.40;;;;;;4701131;30;20049;-82
2022/08/26 06:59:20;;;;;;;0.60;0.20;;;22.90;75.20;;;;;;4705573;30;20110;-83
2022/08/26 07:01:48;;;;;;;2.40;0.30;;;22.90;74.90;;;;;;4709470;30;20079;-82
2022/08/26 07:04:16;;;;;;;1.58;0.20;;;22.90;74.80;;;;;;4705561;30;20056;-82
2022/08/26 07:06:49;;;;;;;1.13;0.30;;;23.00;74.70;;;;;;4710840;30;20521;-82
2022/08/26 07:09:24;;;;;;;0.95;0.20;;;23.00;74.50;;;;;;4719977;30;20076;-82
2022/08/26 07:11:52;;;;;;;1.05;0.20;;;23.10;74.20;;;;;;4719562;30;20060;-82
2022/08/26 07:14:19;;;;;;;3.95;0.32;;;23.10;74.00;;;;;;4712906;30;20081;-82
2022/08/26 07:16:51;;;;;;;3.25;0.30;;;23.10;74.00;;;;;;4705507;30;20442;-82
2022/08/26 07:19:19;;;;;;;2.30;0.45;;;23.20;73.90;;;;;;4719065;30;20052;-83
2022/08/26 07:22:00;;;;;;;1.67;0.30;;;23.20;73.60;;;;;;4706060;30;20055;-82
2022/08/26 07:24:28;;;;;;;2.40;0.25;;;23.20;73.60;;;;;;4718963;30;20088;-82
2022/08/26 07:27:04;;;;;;;1.63;0.30;;;23.20;73.40;;;;;;4704661;30;20135;-83
2022/08/26 07:29:33;;;;;;;2.85;0.30;;;23.20;73.20;;;;;;4718630;30;20139;-83
2022/08/26 07:32:01;;;;;;;4.10;0.47;;;23.20;73.10;;;;;;4704620;30;20139;-83
2022/08/26 07:34:30;;;;;;;1.60;0.40;;;23.20;73.00;;;;;;4720093;30;20056;-82
2022/08/26 07:37:02;;;;;;;2.33;0.57;;;23.10;73.00;;;;;;4706702;30;20056;-82
2022/08/26 07:39:30;;;;;;;2.95;0.30;;;23.10;72.90;;;;;;4708345;30;20048;-82
2022/08/26 07:42:06;;;;;;;1.70;0.30;;;23.20;72.90;;;;;;4706151;30;20521;-82
2022/08/26 07:44:35;;;;;;;1.38;0.30;;;23.20;72.70;;;;;;4719006;30;20071;-82
2022/08/26 07:47:02;;;;;;;0.60;0.20;;;23.20;72.60;;;;;;4681301;30;20104;-82
2022/08/26 07:49:36;;;;;;;2.70;0.20;;;23.30;72.50;;;;;;4691794;30;20118;-82
2022/08/26 07:52:04;;;;;;;2.60;0.30;;;23.30;72.30;;;;;;4704330;30;20194;-80
2022/08/26 07:54:32;;;;;;;2.35;0.50;;;23.30;72.20;;;;;;4721906;30;20501;-81
2022/08/26 07:57:03;;;;;;;2.05;0.20;;;23.40;72.10;;;;;;4716026;30;20049;-80
2022/08/26 07:59:35;;;;;;;3.30;0.25;;;23.50;71.90;;;;;;4716237;30;20151;-81
2022/08/26 08:02:09;;;;;;;2.00;0.20;;;23.50;71.70;;;;;;4701610;30;20111;-81
2022/08/26 08:04:46;;;;;;;2.88;0.40;;;23.70;71.40;;;;;;4728932;30;20140;-82
2022/08/26 08:07:16;;;;;;;0.93;0.30;;;23.70;71.00;;;;;;4736043;30;20067;-81
2022/08/26 08:09:43;;;;;;;1.40;0.30;;;23.60;71.20;;;;;;4704011;30;20045;-81
2022/08/26 08:12:10;;;;;;;0.98;0.30;;;23.70;71.10;;;;;;4709657;30;20118;-79
2022/08/26 08:14:44;;;;;;;1.15;0.28;;;23.70;71.00;;;;;;4702175;30;20072;-80
2022/08/26 08:17:13;;;;;;;0.50;0.20;;;23.80;70.90;;;;;;4705953;30;20147;-80
2022/08/26 08:19:41;;;;;;;0.85;0.30;;;23.90;70.90;;;;;;4702233;30;20045;-80
2022/08/26 08:22:11;;;;;;;1.00;0.20;;;23.90;70.60;;;;;;4704278;30;20140;-80
2022/08/26 08:24:44;;;;;;;0.93;0.10;;;24.00;70.60;;;;;;4690914;30;20502;-81
2022/08/26 08:27:22;;;;;;;2.38;0.30;;;24.00;70.40;;;;;;4724099;30;20063;-80
2022/08/26 08:29:53;;;;;;;2.05;0.28;;;23.90;70.30;;;;;;4707606;30;20072;-79
2022/08/26 08:32:22;;;;;;;0.75;0.20;;;23.90;70.30;;;;;;4722596;30;20103;-80
2022/08/26 08:34:49;;;;;;;1.75;0.25;;;24.00;70.40;;;;;;4697140;30;20583;-81
2022/08/26 08:37:16;;;;;;;0.70;0.20;;;24.00;70.20;;;;;;4712803;30;20503;-80
2022/08/26 08:39:44;;;;;;;3.75;0.40;;;24.00;70.10;;;;;;4685379;30;20257;-80
2022/08/26 08:42:29;;;;;;;1.75;0.30;;;23.90;70.20;;;;;;4706585;30;20083;-80
2022/08/26 08:45:00;;;;;;;1.40;0.22;;;23.80;70.40;;;;;;4719512;30;20062;-79
2022/08/26 08:47:54;;;;;;;0.95;0.30;;;23.70;70.60;;;;;;4704881;30;20060;-79
2022/08/26 08:50:29;;;;;;;2.65;0.40;;;23.60;70.60;;;;;;4712729;30;20114;-80
2022/08/26 08:53:15;;;;;;;2.35;0.30;;;23.60;70.80;;;;;;4704174;30;20436;-80
2022/08/26 08:56:36;;;;;;;0.68;0.20;;;23.60;70.70;;;;;;4718255;30;20827;-80
2022/08/26 08:59:25;;;;;;;1.20;0.20;;;23.60;70.70;;;;;;4690394;30;20114;-79
2022/08/26 09:02:19;;;;;;;1.85;0.40;;;23.60;70.70;;;;;;4717914;30;20065;-80
2022/08/26 09:05:09;;;;;;;2.60;0.30;;;23.60;70.70;;;;;;4736421;30;20047;-80
2022/08/26 09:08:29;;;;;;;1.77;0.40;;;23.60;70.80;;;;;;4733641;30;20121;-79
2022/08/26 09:10:59;;;;;;;1.10;0.20;;;23.60;70.70;;;;;;4698949;30;20507;-81
2022/08/26 09:13:29;;;;;;;2.67;0.38;;;23.60;70.80;;;;;;4703270;30;20534;-81
2022/08/26 09:16:02;;;;;;;1.80;0.30;;;23.70;70.90;;;;;;4722421;30;20498;-83
2022/08/26 09:19:00;;;;;;;1.52;0.40;;;23.60;71.00;;;;;;4706767;30;20057;-83
2022/08/26 09:21:31;;;;;;;2.05;0.30;;;23.70;71.00;;;;;;4719762;30;20078;-84
2022/08/26 09:24:02;;;;;;;2.13;0.30;;;23.70;71.10;;;;;;4720615;30;20565;-83
2022/08/26 09:26:43;;;;;;;3.53;0.30;;;23.70;71.20;;;;;;4706408;30;20055;-84
2022/08/26 09:29:33;;;;;;;1.90;0.32;;;23.60;71.40;;;;;;4720854;30;20298;-83
2022/08/26 09:32:23;;;;;;;1.08;0.30;;;23.50;71.40;;;;;;4706565;30;20529;-83
2022/08/26 09:34:57;;;;;;;3.72;0.40;;;23.60;71.40;;;;;;4720693;30;20048;-84
2022/08/26 09:37:48;;;;;;;0.88;0.20;;;23.50;71.40;;;;;;4717118;30;20510;-83
2022/08/26 09:40:21;;;;;;;2.28;0.30;;;23.60;71.50;;;;;;4734378;30;20056;-83
2022/08/26 09:43:05;;;;;;;4.45;0.25;;;23.50;71.50;;;;;;4729554;30;20052;-83
2022/08/26 09:45:32;;;;;;;2.47;0.38;;;23.50;71.70;;;;;;4721040;30;20050;-84
2022/08/26 09:48:01;;;;;;;1.02;0.30;;;23.40;71.80;;;;;;4706352;30;20048;-83
2022/08/26 09:50:51;;;;;;;0.55;0.10;;;23.40;71.90;;;;;;4705986;30;20895;-83
2022/08/26 09:53:27;;;;;;;1.13;0.13;;;23.40;72.00;;;;;;4720683;30;20570;-83
2022/08/26 09:56:16;;;;;;;2.30;0.40;;;23.40;72.00;;;;;;4716369;30;20106;-83
2022/08/26 09:58:46;;;;;;;0.73;0.20;;;23.50;71.90;;;;;;4720361;30;20057;-83
2022/08/26 10:01:36;;;;;;;0.60;0.20;;;23.50;71.80;;;;;;4725132;30;20505;-81
2022/08/26 10:04:06;;;;;;;1.98;0.30;;;23.50;71.60;;;;;;4707687;30;20384;-81
2022/08/26 10:06:41;;;;;;;2.10;0.30;;;23.60;71.50;;;;;;4720168;30;20060;-81
2022/08/26 10:09:14;;;;;;;1.63;0.30;;;23.60;71.20;;;;;;4719825;30;20368;-82
2022/08/26 10:11:53;;;;;;;1.33;0.38;;;23.60;71.10;;;;;;4720305;30;20478;-81
2022/08/26 10:14:32;;;;;;;1.08;0.30;;;23.70;71.00;;;;;;4704189;30;20249;-81
2022/08/26 10:17:06;;;;;;;3.13;0.30;;;23.80;70.80;;;;;;4742631;30;20060;-81
2022/08/26 10:19:39;;;;;;;2.40;0.32;;;23.70;70.70;;;;;;4719716;30;20091;-81
2022/08/26 10:22:35;;;;;;;1.50;0.55;;;23.70;70.60;;;;;;4717924;30;20136;-82
2022/08/26 10:25:07;;;;;;;2.63;0.35;;;23.80;70.60;;;;;;4726218;30;20041;-81
2022/08/26 10:27:50;;;;;;;1.90;0.32;;;23.80;70.50;;;;;;4720275;30;20045;-82
2022/08/26 10:30:23;;;;;;;0.85;0.20;;;23.80;70.40;;;;;;4725405;30;20564;-82
2022/08/26 10:33:07;;;;;;;1.75;0.30;;;23.80;70.30;;;;;;4715741;30;20063;-81
2022/08/26 10:35:40;;;;;;;1.30;0.30;;;23.90;70.20;;;;;;4711270;30;20057;-81
2022/08/26 10:38:18;;;;;;;1.65;0.45;;;23.90;70.10;;;;;;4720179;30;20135;-82
2022/08/26 10:40:53;;;;;;;0.95;0.20;;;24.00;69.80;;;;;;4720355;30;20052;-83
2022/08/26 10:43:50;;;;;;;1.15;0.28;;;24.10;69.70;;;;;;4734000;30;20110;-82
2022/08/26 10:46:27;;;;;;;1.08;0.20;;;24.10;69.50;;;;;;4722503;30;20125;-81
2022/08/26 10:49:11;;;;;;;1.52;0.47;;;24.20;69.30;;;;;;4740353;30;20070;-81
2022/08/26 10:51:49;;;;;;;2.17;0.30;;;24.20;69.10;;;;;;4706154;30;20525;-80
2022/08/26 10:54:23;;;;;;;1.58;0.25;;;24.10;68.90;;;;;;4729056;30;20057;-82
2022/08/26 10:57:12;;;;;;;1.17;0.30;;;24.10;69.00;;;;;;4725290;30;20064;-81
2022/08/26 10:59:47;;;;;;;1.73;0.30;;;24.10;68.90;;;;;;4731760;30;20463;-79
2022/08/26 11:02:35;;;;;;;1.63;0.28;;;24.10;69.50;;;;;;4724550;30;20057;-80
2022/08/26 11:05:18;;;;;;;1.25;0.50;;;24.10;68.50;;;;;;4732433;30;20052;-81
2022/08/26 11:07:50;;;;;;;3.28;0.40;;;24.10;68.30;;;;;;4720390;30;20410;-80
2022/08/26 11:10:17;;;;;;;;;;;24.00;68.50;;;;;;4720874;30;20057;-80
2022/08/26 11:12:49;;;;;;;1.17;0.22;;;23.90;68.50;;;;;;4727311;30;19953;-80
2022/08/26 11:15:19;;;;;;;1.75;0.20;;;23.70;69.40;;;;;;4702733;30;20065;-80
2022/08/26 11:17:55;;;;;;;1.17;0.20;;;23.20;70.90;;;;;;4723524;30;20521;-80
2022/08/26 11:20:29;;;;;;;;;;;22.70;72.60;;;;;;4719741;30;20106;-79
2022/08/26 11:23:19;;;;;;;1.15;0.63;;;22.20;73.50;;;;;;4719509;30;19980;-80
2022/08/26 11:26:05;;;;;;;2.58;0.20;;;21.90;75.00;;;;;;4735045;30;20124;-80
2022/08/26 11:28:49;;;;;;;1.10;0.30;;;21.60;75.80;;;;;;4719325;30;20040;-79
2022/08/26 11:31:24;;;;;;;1.65;0.20;;;21.70;76.20;;;;;;4709463;30;20052;-80
2022/08/26 11:33:57;;;;;;;0.25;0.20;;;21.70;76.10;;;;;;4722440;30;20114;-82
2022/08/26 11:36:53;;;;;;;2.33;0.20;;;21.70;76.10;;;;;;4734065;30;20068;-81
2022/08/26 11:39:28;;;;;;;2.10;0.20;;;21.80;76.10;;;;;;4739907;30;20052;-77
2022/08/26 11:42:22;;;;;;;0.82;0.13;;;21.80;76.30;;;;;;4720260;30;20098;-79
2022/08/26 11:44:54;;;;;;;0.98;0.20;;;21.70;76.60;;;;;;4720345;30;20090;-80
2022/08/26 11:47:27;;;;;;;0.80;0.20;;;21.80;76.60;;;;;;4719630;30;20443;-80
2022/08/26 11:50:15;;;;;;;1.80;0.30;;;21.80;76.60;;;;;;4719802;30;20044;-79
2022/08/26 11:52:51;;;;;;;0.65;0.13;;;22.00;76.30;;;;;;4718809;30;20475;-78
2022/08/26 11:55:19;;;;;;;0.65;0.10;;;22.00;76.10;;;;;;4734853;30;20407;-81
2022/08/26 11:57:54;;;;;;;0.90;0.40;;;22.00;76.10;;;;;;4719229;30;20072;-81
2022/08/26 12:00:28;;;;;;;1.65;0.25;;;22.10;76.20;;;;;;4719250;30;20059;-81
2022/08/26 12:03:04;;;;;;;1.17;0.28;;;22.10;76.10;;;;;;4724187;30;20565;-79
2022/08/26 12:05:36;;;;;;;1.00;0.28;;;22.10;76.20;;;;;;4705160;30;20052;-81
2022/08/26 12:08:09;;;;;;;1.65;0.50;;;22.10;76.20;;;;;;4731568;30;20045;-81
2022/08/26 12:10:37;;;;;;;1.38;0.40;;;22.10;76.10;;;;;;4720278;30;20057;-78
2022/08/26 12:13:06;;;;;;;0.80;0.17;;;22.10;76.00;;;;;;4712619;30;20060;-78
2022/08/26 12:15:34;;;;;;;1.55;0.20;;;22.20;76.00;;;;;;4729607;30;20056;-76
2022/08/26 12:18:19;;;;;;;7.78;0.40;;;22.20;76.00;;;;;;4734314;30;20052;-77
2022/08/26 12:20:59;;;;;;;0.35;0.13;;;22.00;76.40;;;;;;4720082;30;20061;-77
2022/08/26 12:23:34;;;;;;;0.40;0.20;;;21.80;77.00;;;;;;4710132;30;20053;-76
2022/08/26 12:26:31;;;;;;;0.28;0.10;;;21.90;77.20;;;;;;4731745;30;20065;-77
2022/08/26 12:29:02;;;;;;;2.58;0.17;;;21.90;77.20;;;;;;4727118;30;20059;-77
2022/08/26 12:31:46;;;;;;;1.05;0.10;;;21.90;77.20;;;;;;4733769;30;20134;-76
2022/08/26 12:34:15;;;;;;;0.68;0.17;;;21.90;77.70;;;;;;4723608;30;20036;-77
2022/08/26 12:36:51;;;;;;;2.80;0.28;;;22.00;77.00;;;;;;4721279;30;20066;-76
2022/08/26 12:39:31;;;;;;;0.10;0.00;;;22.00;76.80;;;;;;4729365;30;20040;-78
2022/08/26 12:42:20;;;;;;;0.90;0.20;;;22.10;76.50;;;;;;4721140;30;20053;-77
2022/08/26 12:44:49;;;;;;;1.67;0.20;;;22.10;76.40;;;;;;4722891;30;20055;-78
2022/08/26 12:47:33;;;;;;;1.27;0.30;;;22.20;76.30;;;;;;4744942;30;20047;-77
2022/08/26 12:50:15;;;;;;;0.52;0.20;;;22.30;76.10;;;;;;4735855;30;20063;-77
2022/08/26 12:53:13;;;;;;;0.57;0.47;;;22.40;75.90;;;;;;4739191;30;20495;-77
2022/08/26 12:55:46;;;;;;;1.58;0.20;;;22.50;75.50;;;;;;4744800;30;20044;-79
2022/08/26 12:58:19;;;;;;;1.58;0.20;;;22.70;75.10;;;;;;4711316;30;20465;-78
2022/08/26 13:00:49;;;;;;;0.85;0.15;;;22.80;74.80;;;;;;4732674;30;20057;-79
2022/08/26 13:03:39;;;;;;;0.22;0.10;;;22.90;74.60;;;;;;4722461;30;20076;-78
2022/08/26 13:06:12;;;;;;;1.30;0.20;;;23.00;74.50;;;;;;4708174;30;20041;-78
2022/08/26 13:09:01;;;;;;;1.05;0.10;;;22.90;74.60;;;;;;4737780;30;20055;-77
2022/08/26 13:11:54;;;;;;;0.90;0.10;;;22.90;74.50;;;;;;4722123;30;20057;-76
2022/08/26 13:14:23;;;;;;;1.83;0.20;;;22.90;74.70;;;;;;4744184;30;20048;-79
2022/08/26 13:16:51;;;;;;;1.30;0.20;;;22.80;74.50;;;;;;4707402;30;20049;-77
2022/08/26 13:19:22;;;;;;;1.27;0.20;;;22.80;74.60;;;;;;4722325;30;20056;-78
2022/08/26 13:21:55;;;;;;;0.70;0.20;;;22.80;74.50;;;;;;4740516;30;20079;-78
2022/08/26 13:24:31;;;;;;;0.88;0.17;;;22.80;74.30;;;;;;4727392;30;20138;-78